Time;durP1;ratioP1;P1;durP2;ratioP2;P2;SDS_P1;SDS_P2;PMS_P1;PMS_P2;Temp;Humidity;BMP_temperature;BMP_pressure;BME280_temperature;BME280_humidity;BME280_pressure;Samples;Min_cycle;Max_cycle;Signal;HPM_P1;HPM_P2
2022/09/07 00:00:04;;;;;;;12.18;8.25;;;;;;;;;;4943514;29;20044;-78
2022/09/07 00:02:49;;;;;;;14.45;8.10;;;;;;;;;;4942625;29;20048;-76
2022/09/07 00:05:42;;;;;;;11.73;7.65;;;;;;;;;;4940281;29;20044;-76
2022/09/07 00:08:27;;;;;;;11.18;7.90;;;;;;;;;;4939992;29;20047;-78
2022/09/07 00:11:16;;;;;;;12.13;7.82;;;;;;;;;;4938724;29;20048;-78
2022/09/07 00:14:02;;;;;;;10.20;7.90;;;;;;;;;;4938673;29;20051;-79
2022/09/07 00:16:47;;;;;;;15.18;7.32;;;;;;;;;;4938581;29;20065;-79
2022/09/07 00:19:33;;;;;;;12.85;7.45;;;;;;;;;;4938088;29;20048;-79
2022/09/07 00:22:19;;;;;;;8.35;6.68;;;;;;;;;;4937989;29;20048;-77
2022/09/07 00:25:05;;;;;;;12.55;6.68;;;;;;;;;;4944372;29;20048;-76
2022/09/07 00:27:51;;;;;;;10.00;6.82;;;;;;;;;;4938787;29;20051;-80
2022/09/07 00:30:41;;;;;;;7.53;6.00;;;;;;;;;;4930359;29;20398;-79
2022/09/07 00:33:27;;;;;;;8.82;6.28;;;;;;;;;;4937564;29;20514;-79
2022/09/07 00:36:13;;;;;;;8.38;6.43;;;;;;;;;;4936540;29;20051;-77
2022/09/07 00:38:59;;;;;;;9.88;6.25;;;;;;;;;;4936515;29;20402;-80
2022/09/07 00:41:44;;;;;;;9.15;6.25;;;;;;;;;;4930907;29;20044;-78
2022/09/07 00:44:42;;;;;;;8.35;6.20;;;;;;;;;;4935843;29;20036;-78
2022/09/07 00:47:37;;;;;;;15.48;7.53;;;;;;;;;;4936269;29;20055;-79
2022/09/07 00:50:29;;;;;;;9.00;7.30;;;;;;;;;;4935802;29;20056;-79
2022/09/07 00:53:27;;;;;;;15.02;7.32;;;;;;;;;;4935776;29;20056;-80
2022/09/07 00:56:13;;;;;;;10.90;7.63;;;;;;;;;;4935844;29;20048;-81
2022/09/07 00:58:58;;;;;;;12.25;7.35;;;;;;;;;;4938694;29;20397;-80
2022/09/07 01:01:44;;;;;;;9.77;7.32;;;;;;;;;;4939493;29;20048;-79
2022/09/07 01:04:29;;;;;;;10.45;7.68;;;;;;;;;;4939429;29;20409;-79
2022/09/07 01:07:15;;;;;;;11.07;7.07;;;;;;;;;;4939211;29;20039;-79
2022/09/07 01:10:01;;;;;;;10.07;7.32;;;;;;;;;;4938958;29;20044;-78
2022/09/07 01:12:46;;;;;;;11.57;7.30;;;;;;;;;;4939035;29;20048;-80
2022/09/07 01:15:58;;;;;;;12.60;7.45;;;;;;;;;;4938930;29;20043;-80
2022/09/07 01:19:17;;;;;;;11.40;7.05;;;;;;;;;;4939038;29;20047;-78
2022/09/07 01:22:18;;;;;;;14.52;7.63;;;;;;;;;;4938876;29;20043;-78
2022/09/07 01:25:16;;;;;;;11.38;8.30;;;;;;;;;;4938498;29;20047;-78
2022/09/07 01:28:26;;;;;;;10.48;7.28;;;;;;;;;;4938726;29;20044;-78
2022/09/07 01:31:25;;;;;;;10.40;7.75;;;;;;;;;;4938880;29;20405;-79
2022/09/07 01:34:21;;;;;;;12.18;8.15;;;;;;;;;;4938561;29;20060;-79
2022/09/07 01:37:16;;;;;;;11.93;8.13;;;;;;;;;;4938646;29;20051;-79
2022/09/07 01:40:10;;;;;;;11.95;7.75;;;;;;;;;;4938382;29;20048;-78
2022/09/07 01:43:03;;;;;;;17.98;7.28;;;;;;;;;;4938788;29;20386;-79
2022/09/07 01:45:51;;;;;;;18.23;7.35;;;;;;;;;;4938387;29;20048;-80
2022/09/07 01:48:39;;;;;;;9.10;6.88;;;;;;;;;;4938680;29;20047;-78
2022/09/07 01:51:31;;;;;;;11.10;7.00;;;;;;;;;;4938153;29;20044;-78
2022/09/07 01:54:33;;;;;;;10.80;6.43;;;;;;;;;;4938364;29;20047;-78
2022/09/07 01:57:29;;;;;;;10.70;6.72;;;;;;;;;;4938477;29;20048;-80
2022/09/07 02:00:17;;;;;;;9.30;6.20;;;;;;;;;;4943242;29;20402;-80
2022/09/07 02:03:12;;;;;;;10.30;7.05;;;;;;;;;;4938265;29;20047;-80
2022/09/07 02:06:03;;;;;;;9.65;6.32;;;;;;;;;;4938035;29;20048;-80
2022/09/07 02:08:57;;;;;;;8.70;6.53;;;;;;;;;;4937126;29;20482;-80
2022/09/07 02:11:47;;;;;;;8.07;6.75;;;;;;;;;;4937916;29;20051;-80
2022/09/07 02:14:39;;;;;;;10.23;7.10;;;;;;;;;;4938012;29;20043;-80
2022/09/07 02:17:51;;;;;;;9.93;7.18;;;;;;;;;;4938109;29;20051;-81
2022/09/07 02:20:38;;;;;;;13.10;6.88;;;;;;;;;;4944456;29;20051;-81
2022/09/07 02:23:29;;;;;;;10.07;7.32;;;;;;;;;;4937645;29;20047;-81
2022/09/07 02:26:21;;;;;;;9.50;7.00;;;;;;;;;;4937387;29;20051;-81
2022/09/07 02:29:07;;;;;;;8.57;6.72;;;;;;;;;;4937699;29;20047;-79
2022/09/07 02:31:52;;;;;;;12.75;7.22;;;;;;;;;;4937600;29;20052;-79
2022/09/07 02:34:37;;;;;;;12.25;7.57;;;;;;;;;;4937688;29;20486;-79
2022/09/07 02:37:26;;;;;;;12.27;6.95;;;;;;;;;;4937729;29;20044;-79
2022/09/07 02:40:12;;;;;;;12.00;7.32;;;;;;;;;;4937310;29;20490;-79
2022/09/07 02:42:59;;;;;;;10.45;6.45;;;;;;;;;;4943567;29;20051;-80
2022/09/07 02:46:03;;;;;;;10.15;6.82;;;;;;;;;;4937808;29;20047;-80
2022/09/07 02:48:56;;;;;;;8.73;6.70;;;;;;;;;;4937838;29;20489;-80
2022/09/07 02:51:57;;;;;;;12.25;7.35;;;;;;;;;;4936887;29;20047;-80
2022/09/07 02:55:06;;;;;;;10.30;7.03;;;;;;;;;;4937147;29;20047;-79
2022/09/07 02:58:10;;;;;;;11.80;7.40;;;;;;;;;;4932588;29;20055;-81
2022/09/07 03:01:17;;;;;;;10.52;7.03;;;;;;;;;;4937052;29;20048;-80
2022/09/07 03:04:11;;;;;;;12.98;7.10;;;;;;;;;;4936947;29;20051;-80
2022/09/07 03:07:15;;;;;;;10.23;6.53;;;;;;;;;;4937063;29;20048;-79
2022/09/07 03:10:03;;;;;;;12.02;7.50;;;;;;;;;;4936195;29;20047;-80
2022/09/07 03:12:49;;;;;;;10.65;7.22;;;;;;;;;;4936261;29;20048;-79
2022/09/07 03:15:34;;;;;;;10.38;7.65;;;;;;;;;;4936663;29;20051;-79
2022/09/07 03:18:20;;;;;;;15.77;7.95;;;;;;;;;;4936625;29;20486;-80
2022/09/07 03:21:05;;;;;;;13.75;8.25;;;;;;;;;;4936487;29;20060;-79
2022/09/07 03:23:51;;;;;;;14.32;7.82;;;;;;;;;;4932138;29;20111;-79
2022/09/07 03:26:40;;;;;;;11.02;8.07;;;;;;;;;;4936334;29;20489;-79
2022/09/07 03:29:25;;;;;;;19.52;9.57;;;;;;;;;;4936459;29;20039;-80
2022/09/07 03:32:11;;;;;;;16.60;9.77;;;;;;;;;;4936422;29;20047;-80
2022/09/07 03:34:57;;;;;;;13.55;9.05;;;;;;;;;;4936260;29;20489;-81
2022/09/07 03:37:42;;;;;;;12.48;8.35;;;;;;;;;;4936823;29;20043;-79
2022/09/07 03:40:27;;;;;;;14.45;8.18;;;;;;;;;;4936453;29;20051;-78
2022/09/07 03:43:13;;;;;;;10.43;8.00;;;;;;;;;;4936671;29;20056;-79
2022/09/07 03:46:01;;;;;;;10.32;7.22;;;;;;;;;;4936052;29;20051;-78
2022/09/07 03:48:48;;;;;;;12.02;7.85;;;;;;;;;;4936247;29;20056;-78
2022/09/07 03:51:34;;;;;;;11.15;7.90;;;;;;;;;;4935699;29;20051;-77
2022/09/07 03:54:19;;;;;;;11.10;7.60;;;;;;;;;;4935488;29;20044;-78
2022/09/07 03:57:05;;;;;;;14.13;8.10;;;;;;;;;;4935139;29;20052;-78
2022/09/07 03:59:51;;;;;;;12.88;8.02;;;;;;;;;;4941749;29;20044;-79
2022/09/07 04:02:36;;;;;;;14.82;7.80;;;;;;;;;;4935181;29;20047;-78
2022/09/07 04:05:22;;;;;;;9.82;7.18;;;;;;;;;;4935295;29;20481;-79
2022/09/07 04:08:08;;;;;;;12.45;8.60;;;;;;;;;;4941617;29;20482;-78
2022/09/07 04:10:56;;;;;;;13.48;8.35;;;;;;;;;;4934541;29;20047;-78
2022/09/07 04:13:42;;;;;;;14.05;7.57;;;;;;;;;;4934813;29;20048;-78
2022/09/07 04:16:29;;;;;;;13.88;7.78;;;;;;;;;;4935295;29;20052;-78
2022/09/07 04:19:14;;;;;;;11.63;8.00;;;;;;;;;;4935335;29;20498;-78
2022/09/07 04:22:00;;;;;;;12.00;8.10;;;;;;;;;;4941390;29;20052;-80
2022/09/07 04:24:45;;;;;;;13.45;7.75;;;;;;;;;;4935354;29;20043;-79
2022/09/07 04:27:30;;;;;;;11.40;7.65;;;;;;;;;;4934841;29;20059;-80
2022/09/07 04:30:16;;;;;;;12.30;7.43;;;;;;;;;;4935110;29;20413;-79
2022/09/07 04:33:01;;;;;;;13.35;7.80;;;;;;;;;;4936161;29;20048;-80
2022/09/07 04:35:47;;;;;;;11.48;7.63;;;;;;;;;;4939592;29;20047;-79
2022/09/07 04:38:33;;;;;;;10.93;7.72;;;;;;;;;;4938635;29;20036;-79
2022/09/07 04:41:18;;;;;;;21.17;7.95;;;;;;;;;;4938149;29;20055;-78
2022/09/07 04:44:04;;;;;;;12.00;7.93;;;;;;;;;;4937911;29;20048;-78
2022/09/07 04:46:50;;;;;;;16.42;9.15;;;;;;;;;;4937922;29;20397;-78
2022/09/07 04:49:36;;;;;;;11.30;8.93;;;;;;;;;;4937448;29;20040;-78
2022/09/07 04:52:21;;;;;;;18.70;9.75;;;;;;;;;;4896966;29;1222391;-79
2022/09/07 04:55:07;;;;;;;18.25;10.25;;;;;;;;;;4939151;29;20371;-79
2022/09/07 04:57:52;;;;;;;22.17;11.30;;;;;;;;;;4939501;29;20394;-79
2022/09/07 05:00:38;;;;;;;17.55;10.35;;;;;;;;;;4939124;29;20398;-79
2022/09/07 05:03:23;;;;;;;15.35;9.55;;;;;;;;;;4938973;29;20056;-79
2022/09/07 05:06:10;;;;;;;12.77;9.05;;;;;;;;;;4945731;29;20051;-78
2022/09/07 05:08:57;;;;;;;13.18;9.40;;;;;;;;;;4938386;29;20490;-78
2022/09/07 05:11:43;;;;;;;15.23;8.68;;;;;;;;;;4938829;29;20044;-78
2022/09/07 05:14:28;;;;;;;17.08;9.07;;;;;;;;;;4945265;29;20052;-79
2022/09/07 05:17:14;;;;;;;16.38;8.45;;;;;;;;;;4937918;29;20048;-79
2022/09/07 05:19:59;;;;;;;17.52;8.60;;;;;;;;;;4938826;29;20056;-79
2022/09/07 05:22:45;;;;;;;12.25;7.82;;;;;;;;;;4938003;29;20051;-78
2022/09/07 05:25:31;;;;;;;10.40;7.22;;;;;;;;;;4938636;29;20044;-78
2022/09/07 05:28:16;;;;;;;10.85;6.85;;;;;;;;;;4938514;29;20048;-78
2022/09/07 05:31:12;;;;;;;11.38;7.35;;;;;;;;;;4937949;29;20043;-80
2022/09/07 05:33:58;;;;;;;10.57;5.50;;;;;;;;;;4937191;29;20482;-79
2022/09/07 05:36:43;;;;;;;8.82;5.47;;;;;;;;;;4938207;29;20055;-78
2022/09/07 05:39:29;;;;;;;7.65;4.97;;;;;;;;;;4936777;29;20052;-79
2022/09/07 05:42:14;;;;;;;8.02;5.30;;;;;;;;;;4938112;29;20052;-79
2022/09/07 05:45:00;;;;;;;7.70;5.28;;;;;;;;;;4938157;29;20048;-79
2022/09/07 05:47:49;;;;;;;8.85;5.97;;;;;;;;;;4938272;29;20051;-79
2022/09/07 05:50:35;;;;;;;7.30;5.57;;;;;;;;;;4937761;29;20044;-79
2022/09/07 05:53:21;;;;;;;12.85;6.18;;;;;;;;;;4938226;29;20437;-79
2022/09/07 05:56:07;;;;;;;10.40;6.50;;;;;;;;;;4938412;29;20048;-79
2022/09/07 05:58:53;;;;;;;8.57;5.93;;;;;;;;;;4938214;29;20048;-78
2022/09/07 06:01:38;;;;;;;8.88;4.95;;;;;;;;;;4938279;29;20055;-79
2022/09/07 06:04:24;;;;;;;10.05;5.60;;;;;;;;;;4938017;29;20493;-78
2022/09/07 06:07:12;;;;;;;9.27;5.97;;;;;;;;;;4937578;29;20044;-79
2022/09/07 06:09:57;;;;;;;10.93;5.35;;;;;;;;;;4937924;29;20039;-79
2022/09/07 06:12:46;;;;;;;9.02;5.68;;;;;;;;;;4937715;29;20052;-79
2022/09/07 06:15:32;;;;;;;8.05;6.07;;;;;;;;;;4937903;29;20051;-79
2022/09/07 06:18:18;;;;;;;9.82;5.90;;;;;;;;;;4937906;29;20039;-79
2022/09/07 06:21:05;;;;;;;12.80;6.35;;;;;;;;;;4937665;29;20390;-78
2022/09/07 06:23:50;;;;;;;11.60;6.35;;;;;;;;;;4937642;29;20493;-78
2022/09/07 06:26:35;;;;;;;9.43;6.22;;;;;;;;;;4937472;29;20416;-78
2022/09/07 06:29:21;;;;;;;11.60;7.07;;;;;;;;;;4943811;29;20047;-77
2022/09/07 06:32:07;;;;;;;10.45;6.88;;;;;;;;;;4937422;29;20494;-77
2022/09/07 06:34:52;;;;;;;9.95;6.65;;;;;;;;;;4937424;29;20047;-77
2022/09/07 06:37:38;;;;;;;8.00;6.80;;;;;;;;;;4937589;29;20047;-77
2022/09/07 06:40:23;;;;;;;10.77;6.65;;;;;;;;;;4937467;29;20051;-77
2022/09/07 06:43:09;;;;;;;14.10;6.57;;;;;;;;;;4943641;29;20056;-78
2022/09/07 06:45:55;;;;;;;13.43;7.85;;;;;;;;;;4937424;29;20044;-78
2022/09/07 06:48:40;;;;;;;12.25;7.85;;;;;;;;;;4936984;29;20489;-77
2022/09/07 06:51:27;;;;;;;10.65;6.43;;;;;;;;;;4936950;29;20409;-77
2022/09/07 06:54:12;;;;;;;10.52;6.65;;;;;;;;;;4937008;29;20052;-76
2022/09/07 06:56:58;;;;;;;12.95;6.15;;;;;;;;;;4936731;29;20047;-77
2022/09/07 06:59:44;;;;;;;9.18;5.60;;;;;;;;;;4937311;29;20043;-77
2022/09/07 07:02:29;;;;;;;9.07;5.88;;;;;;;;;;4936842;29;20059;-77
2022/09/07 07:05:15;;;;;;;9.68;6.10;;;;;;;;;;4937009;29;20052;-78
2022/09/07 07:08:01;;;;;;;12.27;6.07;;;;;;;;;;4937179;29;20043;-78
2022/09/07 07:10:46;;;;;;;8.45;6.13;;;;;;;;;;4943176;29;20051;-79
2022/09/07 07:13:32;;;;;;;9.73;6.38;;;;;;;;;;4936838;29;20478;-78
2022/09/07 07:16:18;;;;;;;8.40;5.57;;;;;;;;;;4942028;29;20043;-79
2022/09/07 07:19:03;;;;;;;12.85;5.78;;;;;;;;;;4936639;29;20044;-78
2022/09/07 07:21:49;;;;;;;10.45;5.63;;;;;;;;;;4936065;29;20401;-78
2022/09/07 07:24:35;;;;;;;10.65;6.10;;;;;;;;;;4936571;29;20052;-78
2022/09/07 07:27:20;;;;;;;7.88;5.65;;;;;;;;;;4936257;29;20043;-77
2022/09/07 07:30:06;;;;;;;8.13;5.63;;;;;;;;;;4936571;29;20044;-78
2022/09/07 07:32:52;;;;;;;9.77;5.22;;;;;;;;;;4936853;29;20040;-78
2022/09/07 07:35:37;;;;;;;9.20;4.97;;;;;;;;;;4936871;29;20055;-78
2022/09/07 07:38:23;;;;;;;8.70;5.60;;;;;;;;;;4936737;29;20047;-78
2022/09/07 07:41:09;;;;;;;9.07;5.28;;;;;;;;;;4936756;29;20079;-78
2022/09/07 07:43:57;;;;;;;7.32;5.28;;;;;;;;;;4936514;29;20047;-78
2022/09/07 07:46:47;;;;;;;12.07;5.30;;;;;;;;;;4936269;29;20402;-78
2022/09/07 07:49:32;;;;;;;8.20;5.30;;;;;;;;;;4936788;29;20051;-79
2022/09/07 07:52:18;;;;;;;8.75;5.13;;;;;;;;;;4936129;29;20047;-78
2022/09/07 07:55:04;;;;;;;7.70;5.07;;;;;;;;;;4936287;29;20048;-78
2022/09/07 07:57:50;;;;;;;11.00;6.05;;;;;;;;;;4936072;29;20048;-78
2022/09/07 08:00:35;;;;;;;10.23;5.00;;;;;;;;;;4936205;29;20047;-78
2022/09/07 08:03:22;;;;;;;13.05;6.68;;;;;;;;;;4936319;29;20044;-78
2022/09/07 08:06:10;;;;;;;8.13;5.43;;;;;;;;;;4935927;29;20048;-78
2022/09/07 08:08:55;;;;;;;7.32;5.60;;;;;;;;;;4941977;29;20051;-78
2022/09/07 08:11:41;;;;;;;9.05;5.82;;;;;;;;;;4940110;29;20039;-78
2022/09/07 08:14:26;;;;;;;9.15;5.55;;;;;;;;;;4940390;29;20048;-79
2022/09/07 08:17:14;;;;;;;6.63;5.20;;;;;;;;;;4940070;29;20040;-78
2022/09/07 08:19:59;;;;;;;8.07;5.18;;;;;;;;;;4946177;29;20406;-76
2022/09/07 08:22:48;;;;;;;8.02;5.60;;;;;;;;;;4939818;29;20047;-78
2022/09/07 08:25:34;;;;;;;7.75;4.75;;;;;;;;;;4939826;29;20040;-80
2022/09/07 08:28:20;;;;;;;7.10;4.95;;;;;;;;;;4939510;29;20047;-77
2022/09/07 08:31:08;;;;;;;7.07;4.78;;;;;;;;;;4939870;29;20485;-77
2022/09/07 08:33:54;;;;;;;14.90;5.15;;;;;;;;;;4939484;29;20044;-77
2022/09/07 08:36:39;;;;;;;7.00;4.68;;;;;;;;;;4945835;29;20055;-77
2022/09/07 08:39:25;;;;;;;7.97;5.00;;;;;;;;;;4939478;29;20052;-77
2022/09/07 08:42:41;;;;;;;7.53;4.22;;;;;;;;;;4939459;29;20056;-76
2022/09/07 08:45:36;;;;;;;10.07;4.38;;;;;;;;;;4939390;29;20052;-75
2022/09/07 08:48:25;;;;;;;;;;;;;;;;;;4939702;29;20044;-77
2022/09/07 08:51:21;;;;;;;7.95;4.35;;;;;;;;;;4939439;29;19918;-77
2022/09/07 08:54:12;;;;;;;9.85;4.60;;;;;;;;;;4939026;29;20048;-77
2022/09/07 08:57:01;;;;;;;9.70;4.70;;;;;;;;;;4945734;29;20056;-79
2022/09/07 09:00:10;;;;;;;10.40;4.55;;;;;;;;;;4939096;29;20043;-77
2022/09/07 09:02:57;;;;;;;6.75;4.40;;;;;;;;;;4945747;29;20040;-78
2022/09/07 09:05:53;;;;;;;4.63;3.55;;;;;;;;;;4938619;29;20039;-77
2022/09/07 09:08:54;;;;;;;4.65;3.53;;;;;;;;;;4938870;29;20048;-79
2022/09/07 09:12:05;;;;;;;4.43;3.85;;;;;;;;;;4939010;29;20056;-76
2022/09/07 09:15:20;;;;;;;4.78;3.78;;;;;;;;;;4945344;29;20485;-76
2022/09/07 09:18:12;;;;;;;7.75;4.05;;;;;;;;;;4944953;29;20043;-77
2022/09/07 09:20:58;;;;;;;8.20;4.20;;;;;;;;;;4938823;29;20040;-77
2022/09/07 09:23:51;;;;;;;9.30;4.30;;;;;;;;;;4945459;29;20471;-76
2022/09/07 09:26:40;;;;;;;5.13;4.22;;;;;;;;;;4944911;29;20498;-76
2022/09/07 09:29:26;;;;;;;7.70;4.30;;;;;;;;;;4938564;29;20040;-76
2022/09/07 09:32:34;;;;;;;10.15;4.28;;;;;;;;;;4938597;29;20047;-76
2022/09/07 09:35:34;;;;;;;5.97;4.53;;;;;;;;;;4938613;29;20056;-75
2022/09/07 09:38:49;;;;;;;7.70;4.63;;;;;;;;;;4938652;29;20052;-75
2022/09/07 09:41:36;;;;;;;8.32;4.15;;;;;;;;;;4933871;29;20051;-75
2022/09/07 09:44:22;;;;;;;7.00;4.53;;;;;;;;;;4944794;29;20048;-75
2022/09/07 09:47:20;;;;;;;5.05;4.55;;;;;;;;;;4938148;29;20043;-75
2022/09/07 09:50:18;;;;;;;6.88;4.00;;;;;;;;;;4938274;29;20402;-76
2022/09/07 09:53:04;;;;;;;8.27;4.88;;;;;;;;;;4937934;29;20044;-77
2022/09/07 09:55:51;;;;;;;6.38;4.78;;;;;;;;;;4938053;29;20122;-76
2022/09/07 09:58:41;;;;;;;8.43;4.28;;;;;;;;;;4938134;29;20490;-76
2022/09/07 10:01:33;;;;;;;6.90;4.60;;;;;;;;;;4938106;29;20055;-77
2022/09/07 10:04:22;;;;;;;6.85;4.65;;;;;;;;;;4944409;29;20048;-76
2022/09/07 10:07:24;;;;;;;18.27;6.45;;;;;;;;;;4938016;29;20048;-75
2022/09/07 10:10:15;;;;;;;7.30;5.40;;;;;;;;;;4938080;29;20051;-76
2022/09/07 10:13:01;;;;;;;11.20;5.93;;;;;;;;;;4938092;29;20043;-76
2022/09/07 10:15:51;;;;;;;6.13;4.93;;;;;;;;;;4937984;29;20052;-75
2022/09/07 10:18:57;;;;;;;6.80;4.55;;;;;;;;;;4937775;29;20092;-76
2022/09/07 10:21:43;;;;;;;8.60;4.72;;;;;;;;;;4938053;29;20462;-76
2022/09/07 10:24:38;;;;;;;7.35;4.63;;;;;;;;;;4943996;29;20052;-77
2022/09/07 10:27:36;;;;;;;8.43;4.72;;;;;;;;;;4937538;29;20041;-76
2022/09/07 10:30:21;;;;;;;7.15;4.05;;;;;;;;;;4943318;29;20081;-76
2022/09/07 10:33:26;;;;;;;7.47;3.97;;;;;;;;;;4941313;29;20044;-76
2022/09/07 10:36:19;;;;;;;5.35;4.22;;;;;;;;;;4943867;29;20427;-76
2022/09/07 10:39:07;;;;;;;5.15;3.80;;;;;;;;;;4937281;29;20051;-76
2022/09/07 10:42:10;;;;;;;7.95;4.13;;;;;;;;;;4937324;29;20047;-76
2022/09/07 10:45:23;;;;;;;5.75;4.47;;;;;;;;;;4937179;29;20047;-76
2022/09/07 10:48:31;;;;;;;8.82;4.25;;;;;;;;;;4943350;29;20040;-76
2022/09/07 10:51:39;;;;;;;7.97;4.25;;;;;;;;;;4937205;29;20056;-77
2022/09/07 10:54:47;;;;;;;7.25;4.60;;;;;;;;;;4943773;29;20059;-77
2022/09/07 10:57:45;;;;;;;6.38;4.47;;;;;;;;;;4937164;29;20478;-76
2022/09/07 11:00:39;;;;;;;7.82;4.85;;;;;;;;;;4936776;29;20489;-77
2022/09/07 11:03:47;;;;;;;6.72;4.32;;;;;;;;;;4936947;29;20052;-77
2022/09/07 11:06:43;;;;;;;8.15;4.72;;;;;;;;;;4936477;29;20048;-77
2022/09/07 11:09:50;;;;;;;8.05;4.20;;;;;;;;;;4936803;29;20056;-77
2022/09/07 11:12:39;;;;;;;4.97;4.30;;;;;;;;;;4936496;29;20052;-75
2022/09/07 11:15:31;;;;;;;7.82;4.43;;;;;;;;;;4937159;29;20490;-76
2022/09/07 11:18:29;;;;;;;6.13;4.68;;;;;;;;;;4936485;29;20047;-77
2022/09/07 11:21:19;;;;;;;5.82;4.35;;;;;;;;;;4936275;29;20494;-77
2022/09/07 11:24:25;;;;;;;5.93;4.78;;;;;;;;;;4936568;29;20051;-76
2022/09/07 11:27:36;;;;;;;7.22;4.30;;;;;;;;;;4936161;29;20390;-76
2022/09/07 11:30:35;;;;;;;8.77;4.57;;;;;;;;;;4936522;29;20059;-77
2022/09/07 11:33:26;;;;;;;7.15;4.50;;;;;;;;;;4936072;29;20401;-76
2022/09/07 11:36:15;;;;;;;12.18;4.40;;;;;;;;;;4936314;29;20481;-77
2022/09/07 11:39:15;;;;;;;9.40;4.40;;;;;;;;;;4936642;29;20044;-78
2022/09/07 11:42:04;;;;;;;6.38;4.50;;;;;;;;;;4935498;29;20055;-79
2022/09/07 11:45:03;;;;;;;9.13;4.95;;;;;;;;;;4935956;29;20094;-77
2022/09/07 11:47:56;;;;;;;5.63;4.53;;;;;;;;;;4935461;29;20402;-78
2022/09/07 11:50:47;;;;;;;7.87;4.40;;;;;;;;;;4935905;29;20048;-77
2022/09/07 11:53:36;;;;;;;5.97;4.20;;;;;;;;;;4936334;29;20040;-77
2022/09/07 11:56:29;;;;;;;5.65;4.13;;;;;;;;;;4935907;29;20055;-77
2022/09/07 11:59:23;;;;;;;7.18;4.50;;;;;;;;;;4936529;29;20047;-76
2022/09/07 12:02:34;;;;;;;6.30;4.30;;;;;;;;;;4936142;29;20047;-77
2022/09/07 12:05:40;;;;;;;9.80;4.40;;;;;;;;;;4935800;29;20047;-77
2022/09/07 12:08:47;;;;;;;6.95;4.47;;;;;;;;;;4935203;29;20047;-77
2022/09/07 12:12:09;;;;;;;6.63;4.88;;;;;;;;;;4936189;29;20044;-77
2022/09/07 12:14:58;;;;;;;5.30;4.10;;;;;;;;;;4936399;29;20052;-78
2022/09/07 12:18:19;;;;;;;5.50;4.03;;;;;;;;;;4935971;29;20040;-77
2022/09/07 12:21:39;;;;;;;6.22;4.50;;;;;;;;;;4939010;29;20043;-79
2022/09/07 12:24:33;;;;;;;7.15;4.43;;;;;;;;;;4935904;29;20489;-82
2022/09/07 12:27:20;;;;;;;6.78;5.00;;;;;;;;;;4935329;29;20048;-79
2022/09/07 12:30:05;;;;;;;5.97;4.50;;;;;;;;;;4935578;29;20040;-80
2022/09/07 12:32:51;;;;;;;6.85;4.53;;;;;;;;;;4936141;29;20043;-79
2022/09/07 12:35:39;;;;;;;7.47;4.00;;;;;;;;;;4940439;29;20048;-79
2022/09/07 12:38:32;;;;;;;5.38;4.20;;;;;;;;;;4935480;29;20043;-79
2022/09/07 12:41:24;;;;;;;5.45;4.75;;;;;;;;;;4935724;29;20047;-79
2022/09/07 12:44:16;;;;;;;8.25;4.95;;;;;;;;;;4935896;29;20478;-79
2022/09/07 12:47:17;;;;;;;8.55;5.20;;;;;;;;;;4935553;29;20052;-79
2022/09/07 12:50:09;;;;;;;7.55;4.57;;;;;;;;;;4942117;29;20055;-79
2022/09/07 12:53:12;;;;;;;8.80;4.55;;;;;;;;;;4935133;29;20051;-78
2022/09/07 12:56:19;;;;;;;6.27;4.60;;;;;;;;;;4938539;29;20048;-77
2022/09/07 12:59:26;;;;;;;7.30;4.80;;;;;;;;;;4938529;29;20051;-76
2022/09/07 13:02:29;;;;;;;6.25;4.68;;;;;;;;;;4938878;29;20040;-76
2022/09/07 13:05:23;;;;;;;7.15;4.78;;;;;;;;;;4938711;29;20040;-76
2022/09/07 13:08:27;;;;;;;8.40;5.07;;;;;;;;;;4938767;29;20486;-76
2022/09/07 13:11:19;;;;;;;;;;;;;;;;;;4945839;29;20398;-77
2022/09/07 13:14:13;;;;;;;5.50;4.57;;;;;;;;;;4942387;29;19915;-77
2022/09/07 13:17:26;;;;;;;8.67;4.53;;;;;;;;;;4941596;29;20055;-77
2022/09/07 13:20:22;;;;;;;10.23;4.63;;;;;;;;;;4945133;29;20286;-76
2022/09/07 13:23:20;;;;;;;6.78;4.35;;;;;;;;;;4938525;29;20048;-77
2022/09/07 13:26:09;;;;;;;5.75;4.60;;;;;;;;;;4938639;29;20478;-78
2022/09/07 13:29:02;;;;;;;7.78;4.57;;;;;;;;;;4938484;29;20059;-76
2022/09/07 13:31:57;;;;;;;4.88;4.38;;;;;;;;;;4944998;29;20047;-77
2022/09/07 13:35:01;;;;;;;6.30;4.32;;;;;;;;;;4938169;29;20047;-76
2022/09/07 13:37:51;;;;;;;8.63;4.63;;;;;;;;;;4945067;29;20044;-76
2022/09/07 13:40:43;;;;;;;5.53;4.30;;;;;;;;;;4938621;29;20047;-78
2022/09/07 13:43:29;;;;;;;6.75;4.47;;;;;;;;;;4945012;29;20056;-76
2022/09/07 13:46:56;;;;;;;5.05;4.10;;;;;;;;;;4939532;29;20040;-77
2022/09/07 13:49:45;;;;;;;5.90;3.97;;;;;;;;;;4939270;29;20056;-77
2022/09/07 13:52:46;;;;;;;5.38;4.22;;;;;;;;;;4939272;29;20043;-76
2022/09/07 13:56:10;;;;;;;4.65;4.00;;;;;;;;;;4939438;29;20051;-76
2022/09/07 13:58:56;;;;;;;8.20;4.30;;;;;;;;;;4945673;29;20052;-76
2022/09/07 14:01:46;;;;;;;8.32;4.35;;;;;;;;;;4938728;29;20047;-76
2022/09/07 14:04:40;;;;;;;6.15;4.28;;;;;;;;;;4937380;29;20207;-76
2022/09/07 14:07:28;;;;;;;5.97;4.22;;;;;;;;;;4937430;29;20056;-76
2022/09/07 14:10:13;;;;;;;5.53;4.00;;;;;;;;;;4937378;29;20048;-76
2022/09/07 14:13:11;;;;;;;5.35;4.22;;;;;;;;;;4937894;29;20051;-76
2022/09/07 14:15:56;;;;;;;6.70;4.22;;;;;;;;;;4937825;29;20055;-76
2022/09/07 14:18:43;;;;;;;5.97;4.10;;;;;;;;;;4937499;29;20051;-76
2022/09/07 14:21:28;;;;;;;11.30;4.20;;;;;;;;;;4930118;29;20429;-76
2022/09/07 14:24:23;;;;;;;7.65;3.80;;;;;;;;;;4938010;29;20044;-76
2022/09/07 14:27:20;;;;;;;5.65;4.18;;;;;;;;;;4937595;29;20405;-76
2022/09/07 14:30:22;;;;;;;6.07;4.07;;;;;;;;;;4937503;29;20052;-76
2022/09/07 14:33:16;;;;;;;7.93;4.22;;;;;;;;;;4944059;29;20056;-78
2022/09/07 14:36:02;;;;;;;6.63;4.20;;;;;;;;;;4944123;29;20040;-77
2022/09/07 14:38:48;;;;;;;6.95;3.90;;;;;;;;;;4943198;29;20048;-77
2022/09/07 14:41:37;;;;;;;5.47;3.80;;;;;;;;;;4937285;29;20048;-77
2022/09/07 14:44:39;;;;;;;5.70;3.90;;;;;;;;;;4943488;29;20494;-76
2022/09/07 14:47:32;;;;;;;7.90;4.30;;;;;;;;;;4937295;29;20043;-76
2022/09/07 14:50:28;;;;;;;6.10;4.10;;;;;;;;;;4936964;29;20048;-76
2022/09/07 14:53:17;;;;;;;5.75;4.10;;;;;;;;;;4935274;29;20051;-76
2022/09/07 14:56:08;;;;;;;7.30;4.40;;;;;;;;;;4936636;29;20489;-76
2022/09/07 14:58:54;;;;;;;5.30;3.92;;;;;;;;;;4936733;29;20047;-76
2022/09/07 15:01:39;;;;;;;6.20;4.10;;;;;;;;;;4936604;29;20040;-76
2022/09/07 15:04:27;;;;;;;8.05;4.20;;;;;;;;;;4936202;29;20047;-76
2022/09/07 15:07:28;;;;;;;5.28;4.13;;;;;;;;;;4942358;29;20059;-76
2022/09/07 15:10:20;;;;;;;7.20;3.88;;;;;;;;;;4936470;29;20513;-76
2022/09/07 15:13:23;;;;;;;8.57;3.80;;;;;;;;;;4936059;29;20048;-76
2022/09/07 15:16:27;;;;;;;4.60;3.78;;;;;;;;;;4936376;29;20039;-76
2022/09/07 15:19:14;;;;;;;8.50;4.47;;;;;;;;;;4936148;29;20514;-76
2022/09/07 15:22:00;;;;;;;6.88;4.05;;;;;;;;;;4935019;29;20402;-77
2022/09/07 15:24:46;;;;;;;6.82;4.40;;;;;;;;;;4935218;29;20052;-77
2022/09/07 15:27:31;;;;;;;8.10;4.40;;;;;;;;;;4935548;29;20059;-76
2022/09/07 15:30:17;;;;;;;11.07;4.63;;;;;;;;;;4941913;29;20047;-75
2022/09/07 15:33:03;;;;;;;8.30;4.30;;;;;;;;;;4932960;29;20040;-76
2022/09/07 15:35:49;;;;;;;7.35;5.18;;;;;;;;;;4936296;29;20055;-75
2022/09/07 15:38:35;;;;;;;9.45;5.28;;;;;;;;;;4942801;29;20401;-76
2022/09/07 15:41:20;;;;;;;12.55;4.90;;;;;;;;;;4936463;29;20048;-77
2022/09/07 15:44:06;;;;;;;7.75;4.82;;;;;;;;;;4936276;29;20048;-76
2022/09/07 15:46:52;;;;;;;6.93;4.32;;;;;;;;;;4935955;29;20051;-77
2022/09/07 15:49:40;;;;;;;8.30;4.50;;;;;;;;;;4942625;29;20043;-77
2022/09/07 15:52:25;;;;;;;6.65;4.50;;;;;;;;;;4938569;29;20048;-78
2022/09/07 15:55:15;;;;;;;9.30;4.90;;;;;;;;;;4940321;29;20500;-81
2022/09/07 15:58:00;;;;;;;13.25;5.25;;;;;;;;;;4938935;29;20060;-78
2022/09/07 16:00:45;;;;;;;10.18;5.20;;;;;;;;;;4935755;29;20043;-81
2022/09/07 16:03:31;;;;;;;14.75;6.28;;;;;;;;;;4942258;29;20044;-85
2022/09/07 16:06:17;;;;;;;7.22;4.80;;;;;;;;;;4936696;29;20393;-86
2022/09/07 16:09:02;;;;;;;11.00;5.05;;;;;;;;;;4935474;29;20409;-85
2022/09/07 16:11:48;;;;;;;7.47;5.07;;;;;;;;;;4936018;29;20047;-84
2022/09/07 16:14:33;;;;;;;10.82;6.97;;;;;;;;;;4937004;29;20051;-84
2022/09/07 16:17:19;;;;;;;9.95;6.47;;;;;;;;;;4937035;29;20055;-85
2022/09/07 16:20:05;;;;;;;9.75;5.20;;;;;;;;;;4936234;29;20040;-86
2022/09/07 16:22:51;;;;;;;9.45;5.97;;;;;;;;;;4936717;29;20051;-83
2022/09/07 16:25:37;;;;;;;10.90;6.20;;;;;;;;;;4936430;29;20047;-83
2022/09/07 16:28:22;;;;;;;14.20;7.53;;;;;;;;;;4936216;29;20063;-84
2022/09/07 16:31:23;;;;;;;16.35;10.40;;;;;;;;;;4940026;29;20071;-79
2022/09/07 16:34:08;;;;;;;26.52;13.18;;;;;;;;;;4938596;29;20040;-79
2022/09/07 16:36:54;;;;;;;27.58;14.27;;;;;;;;;;4939588;29;20043;-79
2022/09/07 16:39:40;;;;;;;44.30;20.58;;;;;;;;;;4939551;29;20059;-79
2022/09/07 16:42:25;;;;;;;48.47;23.77;;;;;;;;;;4939582;29;20047;-79
2022/09/07 16:45:11;;;;;;;39.35;18.55;;;;;;;;;;4941161;29;20047;-79
2022/09/07 16:47:56;;;;;;;47.15;22.77;;;;;;;;;;4939242;29;20048;-78
2022/09/07 16:50:51;;;;;;;103.55;43.38;;;;;;;;;;4939359;29;20410;-79
2022/09/07 16:53:36;;;;;;;;;;;;;;;;;;4938732;29;20043;-78
2022/09/07 16:56:23;;;;;;;34.80;17.58;;;;;;;;;;4939011;29;19941;-79
2022/09/07 16:59:14;;;;;;;28.38;14.50;;;;;;;;;;4945711;29;20040;-79